sensor_id;sensor_type;location;lat;lon;timestamp;temperature;humidity
32400;DHT22;45045;45.440;9.178;2023-02-28T00:00:22;9.40;96.80
32400;DHT22;45045;45.440;9.178;2023-02-28T00:02:47;9.30;96.70
32400;DHT22;45045;45.440;9.178;2023-02-28T00:05:14;9.40;96.00
32400;DHT22;45045;45.440;9.178;2023-02-28T00:07:40;9.40;94.20
32400;DHT22;45045;45.440;9.178;2023-02-28T00:10:08;9.50;93.70
32400;DHT22;45045;45.440;9.178;2023-02-28T00:12:35;9.50;93.10
32400;DHT22;45045;45.440;9.178;2023-02-28T00:15:00;9.40;92.70
32400;DHT22;45045;45.440;9.178;2023-02-28T00:17:26;9.40;92.40
32400;DHT22;45045;45.440;9.178;2023-02-28T00:19:52;9.40;92.60
32400;DHT22;45045;45.440;9.178;2023-02-28T00:22:18;9.30;92.30
32400;DHT22;45045;45.440;9.178;2023-02-28T00:24:44;9.30;91.70
32400;DHT22;45045;45.440;9.178;2023-02-28T00:27:09;9.10;91.80
32400;DHT22;45045;45.440;9.178;2023-02-28T00:29:35;9.20;92.20
32400;DHT22;45045;45.440;9.178;2023-02-28T00:32:01;9.20;91.90
32400;DHT22;45045;45.440;9.178;2023-02-28T00:34:26;9.20;92.10
32400;DHT22;45045;45.440;9.178;2023-02-28T00:36:52;9.20;91.60
32400;DHT22;45045;45.440;9.178;2023-02-28T00:39:17;9.10;91.40
32400;DHT22;45045;45.440;9.178;2023-02-28T00:41:43;9.20;91.40
32400;DHT22;45045;45.440;9.178;2023-02-28T00:44:08;9.10;91.30
32400;DHT22;45045;45.440;9.178;2023-02-28T00:46:34;9.10;91.10
32400;DHT22;45045;45.440;9.178;2023-02-28T00:49:00;9.10;91.30
32400;DHT22;45045;45.440;9.178;2023-02-28T00:51:25;9.10;92.20
32400;DHT22;45045;45.440;9.178;2023-02-28T00:53:50;9.10;92.50
32400;DHT22;45045;45.440;9.178;2023-02-28T00:56:16;9.10;92.20
32400;DHT22;45045;45.440;9.178;2023-02-28T00:58:42;9.10;91.90
32400;DHT22;45045;45.440;9.178;2023-02-28T01:01:08;9.20;91.80
32400;DHT22;45045;45.440;9.178;2023-02-28T01:03:34;9.20;91.10
32400;DHT22;45045;45.440;9.178;2023-02-28T01:05:59;9.20;91.00
32400;DHT22;45045;45.440;9.178;2023-02-28T01:08:25;9.20;90.40
32400;DHT22;45045;45.440;9.178;2023-02-28T01:10:51;9.20;90.50
32400;DHT22;45045;45.440;9.178;2023-02-28T01:13:16;9.10;90.60
32400;DHT22;45045;45.440;9.178;2023-02-28T01:15:46;9.20;90.90
32400;DHT22;45045;45.440;9.178;2023-02-28T01:18:14;9.20;90.50
32400;DHT22;45045;45.440;9.178;2023-02-28T01:20:40;9.10;90.10
32400;DHT22;45045;45.440;9.178;2023-02-28T01:23:05;9.20;90.40
32400;DHT22;45045;45.440;9.178;2023-02-28T01:25:31;9.20;90.20
32400;DHT22;45045;45.440;9.178;2023-02-28T01:27:59;9.20;90.30
32400;DHT22;45045;45.440;9.178;2023-02-28T01:30:24;9.20;89.90
32400;DHT22;45045;45.440;9.178;2023-02-28T01:32:50;9.20;90.80
32400;DHT22;45045;45.440;9.178;2023-02-28T01:35:16;9.20;90.30
32400;DHT22;45045;45.440;9.178;2023-02-28T01:37:42;9.10;90.20
32400;DHT22;45045;45.440;9.178;2023-02-28T01:40:08;9.10;90.90
32400;DHT22;45045;45.440;9.178;2023-02-28T01:42:33;9.10;90.10
32400;DHT22;45045;45.440;9.178;2023-02-28T01:47:26;8.80;90.20
32400;DHT22;45045;45.440;9.178;2023-02-28T01:49:52;8.80;90.50
32400;DHT22;45045;45.440;9.178;2023-02-28T01:52:18;8.80;90.70
32400;DHT22;45045;45.440;9.178;2023-02-28T01:54:47;8.70;91.20
32400;DHT22;45045;45.440;9.178;2023-02-28T01:57:16;8.60;91.30
32400;DHT22;45045;45.440;9.178;2023-02-28T01:59:43;8.60;91.30
32400;DHT22;45045;45.440;9.178;2023-02-28T02:02:14;8.50;91.60
32400;DHT22;45045;45.440;9.178;2023-02-28T02:04:41;8.50;91.30
32400;DHT22;45045;45.440;9.178;2023-02-28T02:07:11;8.50;91.00
32400;DHT22;45045;45.440;9.178;2023-02-28T02:09:38;8.60;91.10
32400;DHT22;45045;45.440;9.178;2023-02-28T02:14:52;8.60;91.00
32400;DHT22;45045;45.440;9.178;2023-02-28T02:17:39;8.50;90.50
32400;DHT22;45045;45.440;9.178;2023-02-28T02:27:48;8.60;90.40
32400;DHT22;45045;45.440;9.178;2023-02-28T02:40:42;8.20;92.90
32400;DHT22;45045;45.440;9.178;2023-02-28T02:45:54;8.20;93.80
32400;DHT22;45045;45.440;9.178;2023-02-28T02:48:21;8.30;93.80
32400;DHT22;45045;45.440;9.178;2023-02-28T02:50:50;8.40;93.70
32400;DHT22;45045;45.440;9.178;2023-02-28T02:53:17;8.50;92.80
32400;DHT22;45045;45.440;9.178;2023-02-28T02:55:44;8.30;93.00
32400;DHT22;45045;45.440;9.178;2023-02-28T02:58:14;8.20;93.20
32400;DHT22;45045;45.440;9.178;2023-02-28T03:00:47;8.10;93.10
32400;DHT22;45045;45.440;9.178;2023-02-28T03:03:14;8.10;93.10
32400;DHT22;45045;45.440;9.178;2023-02-28T03:08:08;8.10;93.00
32400;DHT22;45045;45.440;9.178;2023-02-28T03:10:35;8.10;93.30
32400;DHT22;45045;45.440;9.178;2023-02-28T03:18:24;8.20;92.70
32400;DHT22;45045;45.440;9.178;2023-02-28T03:21:00;8.30;92.80
32400;DHT22;45045;45.440;9.178;2023-02-28T03:23:38;8.40;93.00
32400;DHT22;45045;45.440;9.178;2023-02-28T03:26:15;8.40;92.80
32400;DHT22;45045;45.440;9.178;2023-02-28T03:28:46;8.40;92.60
32400;DHT22;45045;45.440;9.178;2023-02-28T03:31:17;8.50;92.50
32400;DHT22;45045;45.440;9.178;2023-02-28T03:33:45;8.50;92.30
32400;DHT22;45045;45.440;9.178;2023-02-28T03:36:20;8.40;92.70
32400;DHT22;45045;45.440;9.178;2023-02-28T03:38:51;8.50;92.40
32400;DHT22;45045;45.440;9.178;2023-02-28T03:43:51;8.40;92.30
32400;DHT22;45045;45.440;9.178;2023-02-28T03:46:18;8.40;92.40
32400;DHT22;45045;45.440;9.178;2023-02-28T03:48:56;8.50;92.80
32400;DHT22;45045;45.440;9.178;2023-02-28T03:51:22;8.40;92.10
32400;DHT22;45045;45.440;9.178;2023-02-28T03:53:59;8.40;92.70
32400;DHT22;45045;45.440;9.178;2023-02-28T03:56:31;8.40;92.40
32400;DHT22;45045;45.440;9.178;2023-02-28T03:59:09;8.40;92.00
32400;DHT22;45045;45.440;9.178;2023-02-28T04:01:45;8.30;92.20
32400;DHT22;45045;45.440;9.178;2023-02-28T04:04:12;8.30;91.90
32400;DHT22;45045;45.440;9.178;2023-02-28T04:06:38;8.40;92.10
32400;DHT22;45045;45.440;9.178;2023-02-28T04:09:05;8.40;92.10
32400;DHT22;45045;45.440;9.178;2023-02-28T04:11:34;8.40;92.50
32400;DHT22;45045;45.440;9.178;2023-02-28T04:14:01;8.40;92.50
32400;DHT22;45045;45.440;9.178;2023-02-28T04:16:27;8.40;92.10
32400;DHT22;45045;45.440;9.178;2023-02-28T04:18:53;8.40;92.50
32400;DHT22;45045;45.440;9.178;2023-02-28T04:21:18;8.40;92.10
32400;DHT22;45045;45.440;9.178;2023-02-28T04:23:46;8.40;91.70
32400;DHT22;45045;45.440;9.178;2023-02-28T04:26:11;8.40;91.80
32400;DHT22;45045;45.440;9.178;2023-02-28T04:28:37;8.40;92.10
32400;DHT22;45045;45.440;9.178;2023-02-28T04:31:03;8.40;92.10
32400;DHT22;45045;45.440;9.178;2023-02-28T04:33:30;8.40;92.00
32400;DHT22;45045;45.440;9.178;2023-02-28T04:35:59;8.40;92.00
32400;DHT22;45045;45.440;9.178;2023-02-28T04:38:25;8.40;91.80
32400;DHT22;45045;45.440;9.178;2023-02-28T04:40:50;8.40;92.00
32400;DHT22;45045;45.440;9.178;2023-02-28T04:43:16;8.40;91.40
32400;DHT22;45045;45.440;9.178;2023-02-28T04:45:41;8.40;91.30
32400;DHT22;45045;45.440;9.178;2023-02-28T04:48:07;8.40;91.30
32400;DHT22;45045;45.440;9.178;2023-02-28T04:50:32;8.40;91.40
32400;DHT22;45045;45.440;9.178;2023-02-28T04:52:58;8.40;90.90
32400;DHT22;45045;45.440;9.178;2023-02-28T04:55:23;8.40;91.10
32400;DHT22;45045;45.440;9.178;2023-02-28T04:57:49;8.40;91.30
32400;DHT22;45045;45.440;9.178;2023-02-28T05:00:15;8.40;91.50
32400;DHT22;45045;45.440;9.178;2023-02-28T05:02:42;8.40;91.10
32400;DHT22;45045;45.440;9.178;2023-02-28T05:05:07;8.40;91.10
32400;DHT22;45045;45.440;9.178;2023-02-28T05:07:33;8.40;91.50
32400;DHT22;45045;45.440;9.178;2023-02-28T05:09:58;8.40;91.40
32400;DHT22;45045;45.440;9.178;2023-02-28T05:12:24;8.40;91.60
32400;DHT22;45045;45.440;9.178;2023-02-28T05:14:50;8.40;91.20
32400;DHT22;45045;45.440;9.178;2023-02-28T05:17:15;8.40;90.90
32400;DHT22;45045;45.440;9.178;2023-02-28T05:19:41;8.40;90.90
32400;DHT22;45045;45.440;9.178;2023-02-28T05:22:11;8.40;91.40
32400;DHT22;45045;45.440;9.178;2023-02-28T05:24:37;8.40;91.00
32400;DHT22;45045;45.440;9.178;2023-02-28T05:27:03;8.40;90.80
32400;DHT22;45045;45.440;9.178;2023-02-28T05:29:28;8.40;90.80
32400;DHT22;45045;45.440;9.178;2023-02-28T05:31:54;8.40;90.80
32400;DHT22;45045;45.440;9.178;2023-02-28T05:34:19;8.30;91.10
32400;DHT22;45045;45.440;9.178;2023-02-28T05:36:45;8.40;91.00
32400;DHT22;45045;45.440;9.178;2023-02-28T05:39:10;8.40;90.90
32400;DHT22;45045;45.440;9.178;2023-02-28T05:41:41;8.40;90.70
32400;DHT22;45045;45.440;9.178;2023-02-28T05:44:07;8.40;91.10
32400;DHT22;45045;45.440;9.178;2023-02-28T05:46:32;8.40;90.90
32400;DHT22;45045;45.440;9.178;2023-02-28T05:48:58;8.40;90.90
32400;DHT22;45045;45.440;9.178;2023-02-28T05:51:25;8.40;91.80
32400;DHT22;45045;45.440;9.178;2023-02-28T05:53:50;8.40;92.00
32400;DHT22;45045;45.440;9.178;2023-02-28T05:56:16;8.50;90.80
32400;DHT22;45045;45.440;9.178;2023-02-28T05:58:41;8.40;91.90
32400;DHT22;45045;45.440;9.178;2023-02-28T06:03:52;8.40;91.10
32400;DHT22;45045;45.440;9.178;2023-02-28T06:06:17;8.40;91.20
32400;DHT22;45045;45.440;9.178;2023-02-28T06:08:43;8.40;90.50
32400;DHT22;45045;45.440;9.178;2023-02-28T06:11:09;8.40;90.20
32400;DHT22;45045;45.440;9.178;2023-02-28T06:13:35;8.50;90.30
32400;DHT22;45045;45.440;9.178;2023-02-28T06:16:01;8.40;90.20
32400;DHT22;45045;45.440;9.178;2023-02-28T06:18:27;8.50;90.00
32400;DHT22;45045;45.440;9.178;2023-02-28T06:20:53;8.50;90.30
32400;DHT22;45045;45.440;9.178;2023-02-28T06:23:20;8.40;90.70
32400;DHT22;45045;45.440;9.178;2023-02-28T06:25:46;8.40;90.30
32400;DHT22;45045;45.440;9.178;2023-02-28T06:28:12;8.40;90.60
32400;DHT22;45045;45.440;9.178;2023-02-28T06:30:37;8.50;90.60
32400;DHT22;45045;45.440;9.178;2023-02-28T06:33:03;8.50;91.10
32400;DHT22;45045;45.440;9.178;2023-02-28T06:35:28;8.60;91.00
32400;DHT22;45045;45.440;9.178;2023-02-28T06:37:54;8.50;90.90
32400;DHT22;45045;45.440;9.178;2023-02-28T06:40:20;8.60;90.60
32400;DHT22;45045;45.440;9.178;2023-02-28T06:42:45;8.60;90.50
32400;DHT22;45045;45.440;9.178;2023-02-28T06:45:11;8.60;90.50
32400;DHT22;45045;45.440;9.178;2023-02-28T06:47:37;8.70;90.10
32400;DHT22;45045;45.440;9.178;2023-02-28T06:50:03;8.90;90.10
32400;DHT22;45045;45.440;9.178;2023-02-28T06:52:30;9.10;89.80
32400;DHT22;45045;45.440;9.178;2023-02-28T06:54:55;9.30;89.10
32400;DHT22;45045;45.440;9.178;2023-02-28T06:57:27;9.20;89.30
32400;DHT22;45045;45.440;9.178;2023-02-28T06:59:53;9.00;90.10
32400;DHT22;45045;45.440;9.178;2023-02-28T07:02:18;8.80;90.20
32400;DHT22;45045;45.440;9.178;2023-02-28T07:04:44;8.70;90.00
32400;DHT22;45045;45.440;9.178;2023-02-28T07:07:09;8.80;90.40
32400;DHT22;45045;45.440;9.178;2023-02-28T07:09:35;8.80;90.30
32400;DHT22;45045;45.440;9.178;2023-02-28T07:12:01;8.70;90.50
32400;DHT22;45045;45.440;9.178;2023-02-28T07:14:26;8.80;90.50
32400;DHT22;45045;45.440;9.178;2023-02-28T07:16:52;8.80;90.40
32400;DHT22;45045;45.440;9.178;2023-02-28T07:19:17;8.80;90.40
32400;DHT22;45045;45.440;9.178;2023-02-28T07:21:43;8.80;90.50
32400;DHT22;45045;45.440;9.178;2023-02-28T07:24:08;8.90;90.40
32400;DHT22;45045;45.440;9.178;2023-02-28T07:26:34;8.90;90.50
32400;DHT22;45045;45.440;9.178;2023-02-28T07:28:59;9.80;99.90
32400;DHT22;45045;45.440;9.178;2023-02-28T07:31:25;10.10;91.70
32400;DHT22;45045;45.440;9.178;2023-02-28T07:33:50;9.90;88.10
32400;DHT22;45045;45.440;9.178;2023-02-28T07:36:16;10.20;91.40
32400;DHT22;45045;45.440;9.178;2023-02-28T07:38:44;10.50;86.80
32400;DHT22;45045;45.440;9.178;2023-02-28T07:41:11;11.00;94.20
32400;DHT22;45045;45.440;9.178;2023-02-28T07:43:36;11.40;99.10
32400;DHT22;45045;45.440;9.178;2023-02-28T07:46:03;11.60;90.30
32400;DHT22;45045;45.440;9.178;2023-02-28T07:48:29;11.20;82.90
32400;DHT22;45045;45.440;9.178;2023-02-28T07:50:55;10.90;81.10
32400;DHT22;45045;45.440;9.178;2023-02-28T07:53:20;10.80;80.60
32400;DHT22;45045;45.440;9.178;2023-02-28T07:55:46;10.60;81.60
32400;DHT22;45045;45.440;9.178;2023-02-28T07:58:11;10.60;83.00
32400;DHT22;45045;45.440;9.178;2023-02-28T08:00:37;10.70;80.80
32400;DHT22;45045;45.440;9.178;2023-02-28T08:03:03;10.70;82.70
32400;DHT22;45045;45.440;9.178;2023-02-28T08:05:29;10.80;81.50
32400;DHT22;45045;45.440;9.178;2023-02-28T08:07:56;11.40;97.50
32400;DHT22;45045;45.440;9.178;2023-02-28T08:10:22;12.00;99.90
32400;DHT22;45045;45.440;9.178;2023-02-28T08:12:49;12.20;99.90
32400;DHT22;45045;45.440;9.178;2023-02-28T08:15:15;12.40;99.90
32400;DHT22;45045;45.440;9.178;2023-02-28T08:17:40;12.70;99.90
32400;DHT22;45045;45.440;9.178;2023-02-28T08:20:06;12.50;92.00
32400;DHT22;45045;45.440;9.178;2023-02-28T08:22:31;12.10;79.90
32400;DHT22;45045;45.440;9.178;2023-02-28T08:24:57;11.60;78.80
32400;DHT22;45045;45.440;9.178;2023-02-28T08:27:23;11.80;92.70
32400;DHT22;45045;45.440;9.178;2023-02-28T08:29:48;12.00;96.90
32400;DHT22;45045;45.440;9.178;2023-02-28T08:32:14;12.20;90.70
32400;DHT22;45045;45.440;9.178;2023-02-28T08:34:39;11.60;80.00
32400;DHT22;45045;45.440;9.178;2023-02-28T08:37:05;11.80;94.10
32400;DHT22;45045;45.440;9.178;2023-02-28T08:39:33;11.30;78.10
32400;DHT22;45045;45.440;9.178;2023-02-28T08:41:59;11.30;94.90
32400;DHT22;45045;45.440;9.178;2023-02-28T08:44:24;11.20;78.90
32400;DHT22;45045;45.440;9.178;2023-02-28T08:46:50;11.00;77.20
32400;DHT22;45045;45.440;9.178;2023-02-28T08:49:15;10.90;76.60
32400;DHT22;45045;45.440;9.178;2023-02-28T08:51:41;10.70;78.60
32400;DHT22;45045;45.440;9.178;2023-02-28T08:54:07;10.50;77.30
32400;DHT22;45045;45.440;9.178;2023-02-28T08:56:33;10.50;78.30
32400;DHT22;45045;45.440;9.178;2023-02-28T08:58:58;10.30;78.60
32400;DHT22;45045;45.440;9.178;2023-02-28T09:01:27;10.60;79.20
32400;DHT22;45045;45.440;9.178;2023-02-28T09:03:53;10.90;79.30
32400;DHT22;45045;45.440;9.178;2023-02-28T09:06:20;10.60;77.60
32400;DHT22;45045;45.440;9.178;2023-02-28T09:08:46;10.10;79.00
32400;DHT22;45045;45.440;9.178;2023-02-28T09:11:12;9.70;80.40
32400;DHT22;45045;45.440;9.178;2023-02-28T09:13:38;9.90;80.20
32400;DHT22;45045;45.440;9.178;2023-02-28T09:16:05;10.50;95.40
32400;DHT22;45045;45.440;9.178;2023-02-28T09:18:31;11.40;99.90
32400;DHT22;45045;45.440;9.178;2023-02-28T09:20:56;12.10;99.90
32400;DHT22;45045;45.440;9.178;2023-02-28T09:23:23;12.50;99.90
32400;DHT22;45045;45.440;9.178;2023-02-28T09:25:52;12.80;99.90
32400;DHT22;45045;45.440;9.178;2023-02-28T09:28:18;12.70;99.90
32400;DHT22;45045;45.440;9.178;2023-02-28T09:30:44;12.80;99.90
32400;DHT22;45045;45.440;9.178;2023-02-28T09:33:10;13.20;99.90
32400;DHT22;45045;45.440;9.178;2023-02-28T09:35:36;13.30;96.10
32400;DHT22;45045;45.440;9.178;2023-02-28T09:38:02;12.70;76.10
32400;DHT22;45045;45.440;9.178;2023-02-28T09:40:28;12.00;75.70
32400;DHT22;45045;45.440;9.178;2023-02-28T09:42:55;11.60;77.20
32400;DHT22;45045;45.440;9.178;2023-02-28T09:47:54;11.80;94.20
32400;DHT22;45045;45.440;9.178;2023-02-28T09:50:38;12.20;81.60
32400;DHT22;45045;45.440;9.178;2023-02-28T09:53:06;12.60;92.40
32400;DHT22;45045;45.440;9.178;2023-02-28T09:58:01;12.80;86.00
32400;DHT22;45045;45.440;9.178;2023-02-28T10:00:29;13.00;95.70
32400;DHT22;45045;45.440;9.178;2023-02-28T10:03:19;12.80;76.70
32400;DHT22;45045;45.440;9.178;2023-02-28T10:08:47;11.90;76.80
32400;DHT22;45045;45.440;9.178;2023-02-28T10:11:11;11.60;77.50
32400;DHT22;45045;45.440;9.178;2023-02-28T10:16:07;11.50;78.30
32400;DHT22;45045;45.440;9.178;2023-02-28T10:18:52;11.50;76.10
32400;DHT22;45045;45.440;9.178;2023-02-28T10:21:21;11.50;76.30
32400;DHT22;45045;45.440;9.178;2023-02-28T10:23:48;11.30;78.00
32400;DHT22;45045;45.440;9.178;2023-02-28T10:26:16;11.40;78.00
32400;DHT22;45045;45.440;9.178;2023-02-28T10:28:42;11.40;77.10
32400;DHT22;45045;45.440;9.178;2023-02-28T10:31:17;11.80;76.70
32400;DHT22;45045;45.440;9.178;2023-02-28T10:33:44;12.00;76.00
32400;DHT22;45045;45.440;9.178;2023-02-28T10:36:14;12.20;75.40
32400;DHT22;45045;45.440;9.178;2023-02-28T10:38:40;11.90;75.10
32400;DHT22;45045;45.440;9.178;2023-02-28T10:41:06;12.10;74.50
32400;DHT22;45045;45.440;9.178;2023-02-28T10:43:32;12.40;74.20
32400;DHT22;45045;45.440;9.178;2023-02-28T10:53:28;13.30;70.40
32400;DHT22;45045;45.440;9.178;2023-02-28T11:01:44;13.10;67.50
32400;DHT22;45045;45.440;9.178;2023-02-28T11:04:18;13.00;69.40
32400;DHT22;45045;45.440;9.178;2023-02-28T11:06:44;13.30;68.20
32400;DHT22;45045;45.440;9.178;2023-02-28T11:09:19;13.50;69.00
32400;DHT22;45045;45.440;9.178;2023-02-28T11:11:48;13.70;67.30
32400;DHT22;45045;45.440;9.178;2023-02-28T11:14:27;13.50;66.80
32400;DHT22;45045;45.440;9.178;2023-02-28T11:16:53;13.80;67.10
32400;DHT22;45045;45.440;9.178;2023-02-28T11:19:23;14.20;66.20
32400;DHT22;45045;45.440;9.178;2023-02-28T11:22:00;14.40;64.70
32400;DHT22;45045;45.440;9.178;2023-02-28T11:24:37;14.60;63.90
32400;DHT22;45045;45.440;9.178;2023-02-28T11:27:05;14.70;63.50
32400;DHT22;45045;45.440;9.178;2023-02-28T11:29:33;14.60;62.90
32400;DHT22;45045;45.440;9.178;2023-02-28T11:34:31;14.80;63.00
32400;DHT22;45045;45.440;9.178;2023-02-28T11:36:58;15.40;62.80
32400;DHT22;45045;45.440;9.178;2023-02-28T11:39:24;15.90;60.80
32400;DHT22;45045;45.440;9.178;2023-02-28T11:44:53;16.90;59.10
32400;DHT22;45045;45.440;9.178;2023-02-28T11:52:28;18.00;59.70
32400;DHT22;45045;45.440;9.178;2023-02-28T12:06:00;20.30;53.30
32400;DHT22;45045;45.440;9.178;2023-02-28T12:13:26;20.90;49.60
32400;DHT22;45045;45.440;9.178;2023-02-28T12:16:04;20.80;49.10
32400;DHT22;45045;45.440;9.178;2023-02-28T12:26:36;21.60;47.70
32400;DHT22;45045;45.440;9.178;2023-02-28T12:29:17;21.00;62.00
32400;DHT22;45045;45.440;9.178;2023-02-28T12:32:27;20.50;67.50
32400;DHT22;45045;45.440;9.178;2023-02-28T12:34:33;20.30;70.30
32400;DHT22;45045;45.440;9.178;2023-02-28T12:37:01;20.10;72.20
32400;DHT22;45045;45.440;9.178;2023-02-28T12:39:30;20.20;72.60
32400;DHT22;45045;45.440;9.178;2023-02-28T12:42:01;20.00;73.50
32400;DHT22;45045;45.440;9.178;2023-02-28T12:44:35;20.40;52.60
32400;DHT22;45045;45.440;9.178;2023-02-28T12:47:05;21.10;51.60
32400;DHT22;45045;45.440;9.178;2023-02-28T12:49:38;21.60;49.10
32400;DHT22;45045;45.440;9.178;2023-02-28T12:52:04;21.90;50.70
32400;DHT22;45045;45.440;9.178;2023-02-28T12:57:02;22.50;46.30
32400;DHT22;45045;45.440;9.178;2023-02-28T13:09:55;21.10;66.80
32400;DHT22;45045;45.440;9.178;2023-02-28T13:12:21;21.60;52.50
32400;DHT22;45045;45.440;9.178;2023-02-28T13:14:48;21.40;51.20
32400;DHT22;45045;45.440;9.178;2023-02-28T13:17:18;21.90;47.80
32400;DHT22;45045;45.440;9.178;2023-02-28T13:19:46;22.30;47.70
32400;DHT22;45045;45.440;9.178;2023-02-28T13:22:36;22.50;46.00
32400;DHT22;45045;45.440;9.178;2023-02-28T13:25:50;22.70;47.20
32400;DHT22;45045;45.440;9.178;2023-02-28T13:27:51;22.70;48.00
32400;DHT22;45045;45.440;9.178;2023-02-28T13:36:26;21.70;45.50
32400;DHT22;45045;45.440;9.178;2023-02-28T13:44:24;19.20;49.80
32400;DHT22;45045;45.440;9.178;2023-02-28T14:05:05;19.90;68.90
32400;DHT22;45045;45.440;9.178;2023-02-28T14:07:33;20.00;51.00
32400;DHT22;45045;45.440;9.178;2023-02-28T14:10:00;20.30;50.20
32400;DHT22;45045;45.440;9.178;2023-02-28T14:15:25;19.30;50.30
32400;DHT22;45045;45.440;9.178;2023-02-28T14:17:55;18.80;51.30
32400;DHT22;45045;45.440;9.178;2023-02-28T14:20:21;18.40;52.20
32400;DHT22;45045;45.440;9.178;2023-02-28T14:22:54;18.20;53.00
32400;DHT22;45045;45.440;9.178;2023-02-28T14:38:17;17.70;52.50
32400;DHT22;45045;45.440;9.178;2023-02-28T14:40:43;17.20;52.90
32400;DHT22;45045;45.440;9.178;2023-02-28T14:43:28;17.00;54.50
32400;DHT22;45045;45.440;9.178;2023-02-28T14:45:55;16.90;54.60
32400;DHT22;45045;45.440;9.178;2023-02-28T14:48:22;17.30;54.70
32400;DHT22;45045;45.440;9.178;2023-02-28T14:50:48;17.50;53.80
32400;DHT22;45045;45.440;9.178;2023-02-28T14:53:15;17.50;55.00
32400;DHT22;45045;45.440;9.178;2023-02-28T14:55:44;17.40;54.00
32400;DHT22;45045;45.440;9.178;2023-02-28T14:58:24;17.00;54.30
32400;DHT22;45045;45.440;9.178;2023-02-28T15:00:50;16.80;55.10
32400;DHT22;45045;45.440;9.178;2023-02-28T15:03:49;16.60;55.80
32400;DHT22;45045;45.440;9.178;2023-02-28T15:08:38;16.20;56.80
32400;DHT22;45045;45.440;9.178;2023-02-28T15:11:04;16.00;56.80
32400;DHT22;45045;45.440;9.178;2023-02-28T15:13:44;16.10;57.40
32400;DHT22;45045;45.440;9.178;2023-02-28T15:18:50;16.10;57.50
32400;DHT22;45045;45.440;9.178;2023-02-28T15:21:18;16.10;57.80
32400;DHT22;45045;45.440;9.178;2023-02-28T15:23:50;16.20;57.90
32400;DHT22;45045;45.440;9.178;2023-02-28T15:26:17;16.20;57.70
32400;DHT22;45045;45.440;9.178;2023-02-28T15:28:43;16.20;57.20
32400;DHT22;45045;45.440;9.178;2023-02-28T15:31:23;16.00;58.20
32400;DHT22;45045;45.440;9.178;2023-02-28T15:33:55;15.70;58.80
32400;DHT22;45045;45.440;9.178;2023-02-28T15:36:21;15.50;59.80
32400;DHT22;45045;45.440;9.178;2023-02-28T15:38:51;15.40;60.70
32400;DHT22;45045;45.440;9.178;2023-02-28T15:41:37;15.20;60.60
32400;DHT22;45045;45.440;9.178;2023-02-28T15:44:22;15.20;60.70
32400;DHT22;45045;45.440;9.178;2023-02-28T15:47:16;15.10;60.80
32400;DHT22;45045;45.440;9.178;2023-02-28T15:49:44;15.10;62.10
32400;DHT22;45045;45.440;9.178;2023-02-28T15:52:12;15.10;61.30
32400;DHT22;45045;45.440;9.178;2023-02-28T15:54:39;15.10;60.90
32400;DHT22;45045;45.440;9.178;2023-02-28T15:57:05;15.00;61.50
32400;DHT22;45045;45.440;9.178;2023-02-28T15:59:33;14.70;61.30
32400;DHT22;45045;45.440;9.178;2023-02-28T16:04:28;14.60;63.40
32400;DHT22;45045;45.440;9.178;2023-02-28T16:07:03;14.30;64.20
32400;DHT22;45045;45.440;9.178;2023-02-28T16:09:29;14.30;64.70
32400;DHT22;45045;45.440;9.178;2023-02-28T16:11:58;14.10;64.60
32400;DHT22;45045;45.440;9.178;2023-02-28T16:14:25;14.20;65.00
32400;DHT22;45045;45.440;9.178;2023-02-28T16:16:56;14.20;64.70
32400;DHT22;45045;45.440;9.178;2023-02-28T16:19:22;14.10;64.50
32400;DHT22;45045;45.440;9.178;2023-02-28T16:21:49;14.20;64.80
32400;DHT22;45045;45.440;9.178;2023-02-28T16:24:14;14.20;65.10
32400;DHT22;45045;45.440;9.178;2023-02-28T16:26:40;14.20;64.80
32400;DHT22;45045;45.440;9.178;2023-02-28T16:29:07;14.10;65.40
32400;DHT22;45045;45.440;9.178;2023-02-28T16:31:35;14.00;66.20
32400;DHT22;45045;45.440;9.178;2023-02-28T16:34:02;13.90;66.70
32400;DHT22;45045;45.440;9.178;2023-02-28T16:36:28;13.90;68.10
32400;DHT22;45045;45.440;9.178;2023-02-28T16:38:54;13.90;66.70
32400;DHT22;45045;45.440;9.178;2023-02-28T16:41:26;13.80;67.70
32400;DHT22;45045;45.440;9.178;2023-02-28T16:43:53;13.60;68.90
32400;DHT22;45045;45.440;9.178;2023-02-28T16:46:19;13.60;69.70
32400;DHT22;45045;45.440;9.178;2023-02-28T16:48:46;13.40;70.00
32400;DHT22;45045;45.440;9.178;2023-02-28T16:51:17;13.40;70.40
32400;DHT22;45045;45.440;9.178;2023-02-28T16:53:43;13.40;70.80
32400;DHT22;45045;45.440;9.178;2023-02-28T16:56:27;13.20;71.70
32400;DHT22;45045;45.440;9.178;2023-02-28T16:58:52;13.10;71.90
32400;DHT22;45045;45.440;9.178;2023-02-28T17:01:19;13.10;73.10
32400;DHT22;45045;45.440;9.178;2023-02-28T17:03:48;13.00;73.10
32400;DHT22;45045;45.440;9.178;2023-02-28T17:06:19;12.90;73.30
32400;DHT22;45045;45.440;9.178;2023-02-28T17:08:45;12.90;73.50
32400;DHT22;45045;45.440;9.178;2023-02-28T17:11:10;12.70;74.00
32400;DHT22;45045;45.440;9.178;2023-02-28T17:13:36;12.70;74.20
32400;DHT22;45045;45.440;9.178;2023-02-28T17:16:01;12.60;75.00
32400;DHT22;45045;45.440;9.178;2023-02-28T17:18:27;12.60;75.60
32400;DHT22;45045;45.440;9.178;2023-02-28T17:20:59;12.50;75.50
32400;DHT22;45045;45.440;9.178;2023-02-28T17:23:25;12.40;75.60
32400;DHT22;45045;45.440;9.178;2023-02-28T17:25:50;12.50;76.30
32400;DHT22;45045;45.440;9.178;2023-02-28T17:28:19;12.50;76.20
32400;DHT22;45045;45.440;9.178;2023-02-28T17:30:45;12.40;77.40
32400;DHT22;45045;45.440;9.178;2023-02-28T17:33:12;12.40;77.30
32400;DHT22;45045;45.440;9.178;2023-02-28T17:35:38;12.30;77.30
32400;DHT22;45045;45.440;9.178;2023-02-28T17:38:03;12.30;77.90
32400;DHT22;45045;45.440;9.178;2023-02-28T17:40:29;12.20;77.90
32400;DHT22;45045;45.440;9.178;2023-02-28T17:42:55;12.20;78.10
32400;DHT22;45045;45.440;9.178;2023-02-28T17:45:22;12.20;78.70
32400;DHT22;45045;45.440;9.178;2023-02-28T17:47:48;12.20;79.10
32400;DHT22;45045;45.440;9.178;2023-02-28T17:50:19;12.20;79.90
32400;DHT22;45045;45.440;9.178;2023-02-28T17:52:45;12.10;79.60
32400;DHT22;45045;45.440;9.178;2023-02-28T17:55:11;12.10;80.10
32400;DHT22;45045;45.440;9.178;2023-02-28T17:57:37;12.00;79.90
32400;DHT22;45045;45.440;9.178;2023-02-28T18:00:03;12.00;80.40
32400;DHT22;45045;45.440;9.178;2023-02-28T18:02:32;12.00;80.30
32400;DHT22;45045;45.440;9.178;2023-02-28T18:04:57;11.90;81.20
32400;DHT22;45045;45.440;9.178;2023-02-28T18:07:23;11.90;81.20
32400;DHT22;45045;45.440;9.178;2023-02-28T18:09:49;11.80;81.80
32400;DHT22;45045;45.440;9.178;2023-02-28T18:12:14;11.80;82.40
32400;DHT22;45045;45.440;9.178;2023-02-28T18:14:40;11.70;82.60
32400;DHT22;45045;45.440;9.178;2023-02-28T18:17:05;11.70;83.30
32400;DHT22;45045;45.440;9.178;2023-02-28T18:19:31;11.70;83.60
32400;DHT22;45045;45.440;9.178;2023-02-28T18:21:57;11.60;83.90
32400;DHT22;45045;45.440;9.178;2023-02-28T18:24:22;11.50;84.50